createdAt,value
2022-12-20T00:01:00.489Z,66.75
2022-12-20T00:03:28.401Z,66.73
2022-12-20T00:05:57.528Z,66.72
2022-12-20T00:08:25.208Z,67.29
2022-12-20T00:10:53.005Z,66.96
2022-12-20T00:13:20.796Z,66.82
2022-12-20T00:15:48.659Z,66.88
2022-12-20T00:18:16.426Z,67.41
2022-12-20T00:20:44.258Z,67.06
2022-12-20T00:23:13.507Z,66.82
2022-12-20T00:25:41.233Z,67.69
2022-12-20T00:28:09.131Z,67.69
2022-12-20T00:30:37.283Z,67.30
2022-12-20T00:33:05.347Z,67.13
2022-12-20T00:35:33.179Z,67.07
2022-12-20T00:38:01.193Z,67.38
2022-12-20T00:40:30.223Z,67.47
2022-12-20T00:42:57.903Z,67.14
2022-12-20T00:45:25.909Z,68.29
2022-12-20T00:47:53.595Z,68.04
2022-12-20T00:50:21.337Z,68.83
2022-12-20T00:52:49.009Z,68.35
2022-12-20T00:55:17.338Z,67.62
2022-12-20T00:57:46.607Z,68.48
2022-12-20T01:00:15.387Z,68.79
2022-12-20T01:02:43.226Z,69.68
2022-12-20T01:05:11.038Z,69.09
2022-12-20T01:07:38.848Z,68.80
2022-12-20T01:10:07.803Z,68.70
2022-12-20T01:12:35.479Z,69.07
2022-12-20T01:15:05.794Z,69.30
2022-12-20T01:17:33.597Z,69.41
2022-12-20T01:20:01.369Z,68.65
2022-12-20T01:22:29.252Z,68.82
2022-12-20T01:24:57.096Z,68.21
2022-12-20T01:27:24.805Z,68.56
2022-12-20T01:29:52.889Z,68.98
2022-12-20T01:32:22.120Z,68.86
2022-12-20T01:34:50.035Z,69.23
2022-12-20T01:37:17.753Z,68.93
2022-12-20T01:39:45.500Z,69.12
2022-12-20T01:42:15.080Z,69.50
2022-12-20T01:44:59.947Z,68.84
2022-12-20T01:47:31.593Z,69.39
2022-12-20T01:50:00.311Z,69.97
2022-12-20T01:52:32.253Z,70.03
2022-12-20T01:55:05.728Z,69.92
2022-12-20T01:57:38.354Z,70.05
2022-12-20T02:00:08.792Z,70.59
2022-12-20T02:02:38.180Z,70.45
2022-12-20T02:05:06.778Z,70.38
2022-12-20T02:07:36.218Z,70.96
2022-12-20T02:10:05.563Z,70.44
2022-12-20T02:12:36.948Z,70.21
2022-12-20T02:15:14.191Z,70.04
2022-12-20T02:17:48.852Z,70.19
2022-12-20T02:20:34.395Z,70.19
2022-12-20T02:23:18.334Z,70.72
2022-12-20T02:25:53.271Z,71.34
2022-12-20T02:28:41.473Z,71.22
2022-12-20T02:31:14.204Z,71.90
2022-12-20T02:33:43.834Z,71.75
2022-12-20T02:36:11.741Z,72.42
2022-12-20T02:38:40.053Z,71.89
2022-12-20T02:41:10.680Z,72.57
2022-12-20T02:43:58.959Z,72.54
2022-12-20T02:46:28.978Z,73.17
2022-12-20T02:48:58.131Z,72.71
2022-12-20T02:51:27.817Z,72.71
2022-12-20T02:53:55.767Z,73.13
2022-12-20T02:56:29.515Z,73.44
2022-12-20T02:59:02.165Z,74.29
2022-12-20T03:01:33.472Z,75.00
2022-12-20T03:04:02.537Z,75.37
2022-12-20T03:06:31.391Z,75.76
2022-12-20T03:09:08.413Z,75.54
2022-12-20T03:11:38.040Z,76.09
2022-12-20T03:14:05.671Z,75.87
2022-12-20T03:16:34.963Z,76.00
2022-12-20T03:19:02.748Z,76.06
2022-12-20T03:21:30.451Z,76.54
2022-12-20T03:23:58.398Z,76.76
2022-12-20T03:26:26.390Z,76.88
2022-12-20T03:28:54.173Z,76.76
2022-12-20T03:31:21.993Z,76.66
2022-12-20T03:33:51.550Z,76.71
2022-12-20T03:36:23.610Z,76.90
2022-12-20T03:38:51.915Z,76.64
2022-12-20T03:41:21.483Z,77.17
2022-12-20T03:43:49.544Z,76.98
2022-12-20T03:46:18.054Z,77.47
2022-12-20T03:48:46.183Z,76.99
2022-12-20T03:51:15.531Z,76.77
2022-12-20T03:53:43.151Z,76.93
2022-12-20T03:56:11.184Z,76.92
2022-12-20T03:58:39.346Z,76.39
2022-12-20T04:01:18.610Z,76.15
2022-12-20T04:03:46.375Z,75.96
2022-12-20T04:06:15.679Z,75.84
2022-12-20T04:08:43.636Z,75.29
2022-12-20T04:11:17.703Z,74.96
2022-12-20T04:13:46.206Z,74.95
2022-12-20T04:16:14.745Z,75.04
2022-12-20T04:18:42.912Z,75.39
2022-12-20T04:21:11.182Z,75.06
2022-12-20T04:23:41.320Z,74.80
2022-12-20T04:26:10.218Z,74.86
2022-12-20T04:28:38.297Z,74.43
2022-12-20T04:31:06.628Z,74.43
2022-12-20T04:33:34.470Z,74.57
2022-12-20T04:36:02.285Z,74.65
2022-12-20T04:38:30.481Z,74.64
2022-12-20T04:41:00.191Z,74.69
2022-12-20T04:43:28.362Z,74.32
2022-12-20T04:45:57.301Z,74.38
2022-12-20T04:51:15.252Z,74.06
2022-12-20T04:53:47.958Z,74.49
2022-12-20T04:56:19.272Z,74.24
2022-12-20T04:58:47.210Z,74.78
2022-12-20T05:01:14.895Z,74.30
2022-12-20T05:03:42.943Z,74.08
2022-12-20T05:06:11.101Z,74.31
2022-12-20T05:08:39.096Z,74.19
2022-12-20T05:11:07.460Z,74.20
2022-12-20T05:13:36.883Z,74.18
2022-12-20T05:16:05.143Z,74.06
2022-12-20T05:18:33.120Z,73.89
2022-12-20T05:21:19.774Z,74.08
2022-12-20T05:24:01.783Z,73.78
2022-12-20T05:26:31.087Z,73.75
2022-12-20T05:29:00.084Z,73.98
2022-12-20T05:31:27.850Z,74.17
2022-12-20T05:33:55.727Z,73.84
2022-12-20T05:36:23.404Z,73.79
2022-12-20T05:38:51.049Z,74.01
2022-12-20T05:41:18.653Z,74.02
2022-12-20T05:43:46.430Z,73.89
2022-12-20T05:46:15.475Z,73.32
2022-12-20T05:48:43.288Z,73.60
2022-12-20T05:51:11.261Z,73.36
2022-12-20T05:53:39.155Z,73.17
2022-12-20T05:56:07.059Z,72.92
2022-12-20T05:58:35.069Z,73.13
2022-12-20T06:01:03.231Z,72.99
2022-12-20T06:03:32.549Z,72.80
2022-12-20T06:06:00.237Z,72.63
2022-12-20T06:08:27.931Z,72.83
2022-12-20T06:10:56.020Z,72.27
2022-12-20T06:13:23.778Z,72.71
2022-12-20T06:15:51.439Z,72.00
2022-12-20T06:18:19.157Z,71.85
2022-12-20T06:20:52.535Z,72.67
2022-12-20T06:23:21.349Z,72.17
2022-12-20T06:25:49.218Z,71.84
2022-12-20T06:28:21.627Z,71.65
2022-12-20T06:30:53.216Z,71.78
2022-12-20T06:33:21.010Z,71.24
2022-12-20T06:35:51.802Z,70.72
2022-12-20T06:38:19.717Z,71.18
2022-12-20T06:40:47.322Z,71.56
2022-12-20T06:43:15.105Z,71.29
2022-12-20T06:45:43.076Z,71.38
2022-12-20T06:48:11.094Z,71.24
2022-12-20T06:50:39.217Z,70.89
2022-12-20T06:53:08.264Z,70.81
2022-12-20T06:55:35.922Z,70.71
2022-12-20T06:58:04.792Z,70.33
2022-12-20T07:00:32.505Z,69.86
2022-12-20T07:03:00.543Z,69.23
2022-12-20T07:05:28.496Z,69.54
2022-12-20T07:07:56.181Z,69.35
2022-12-20T07:10:28.520Z,69.09
2022-12-20T07:12:56.116Z,69.09
2022-12-20T07:15:23.900Z,68.87
2022-12-20T07:17:53.946Z,68.86
2022-12-20T07:20:21.572Z,69.41
2022-12-20T07:22:49.555Z,69.42
2022-12-20T07:25:17.945Z,69.16
2022-12-20T07:27:49.752Z,69.36
2022-12-20T07:30:19.210Z,69.35
2022-12-20T07:32:46.888Z,69.43
2022-12-20T07:35:15.201Z,68.00
2022-12-20T07:37:43.121Z,67.13
2022-12-20T07:40:13.171Z,67.04
2022-12-20T07:42:47.923Z,67.27
2022-12-20T07:45:19.805Z,66.44
2022-12-20T07:47:47.428Z,66.96
2022-12-20T07:50:15.386Z,67.90
2022-12-20T07:52:45.197Z,67.55
2022-12-20T07:55:12.999Z,67.55
2022-12-20T07:57:43.366Z,67.55
2022-12-20T08:00:15.234Z,67.55
2022-12-20T08:02:47.183Z,67.55
2022-12-20T08:05:17.044Z,67.55
2022-12-20T08:07:46.665Z,67.55
2022-12-20T08:10:15.719Z,67.55
2022-12-20T08:12:45.285Z,67.55
2022-12-20T08:15:13.215Z,67.55
2022-12-20T08:17:40.910Z,67.55
2022-12-20T08:20:12.376Z,67.55
2022-12-20T08:22:40.029Z,67.55
2022-12-20T08:25:08.894Z,67.55
2022-12-20T08:27:36.745Z,67.55
2022-12-20T08:30:04.967Z,67.55
2022-12-20T08:32:32.549Z,67.55
2022-12-20T08:35:00.225Z,67.55
2022-12-20T08:37:29.295Z,67.55
2022-12-20T08:39:57.080Z,67.55
2022-12-20T08:42:24.763Z,67.55
2022-12-20T08:44:52.568Z,67.55
2022-12-20T08:47:20.219Z,67.55
2022-12-20T08:49:48.263Z,67.55
2022-12-20T08:52:16.099Z,67.55
2022-12-20T08:54:45.269Z,67.55
2022-12-20T08:59:40.901Z,67.55
2022-12-20T09:02:08.742Z,67.55
2022-12-20T09:04:44.736Z,67.55
2022-12-20T09:09:41.977Z,67.55
2022-12-20T09:14:38.908Z,100.00
2022-12-20T09:17:07.101Z,100.00
2022-12-20T09:19:34.750Z,0.00
2022-12-20T09:22:02.423Z,67.55
2022-12-20T09:26:58.090Z,100.00
2022-12-20T09:29:32.204Z,100.00
2022-12-20T09:32:03.223Z,100.00
2022-12-20T09:34:30.945Z,100.00
2022-12-20T09:36:58.663Z,100.00
2022-12-20T09:39:26.370Z,100.00
2022-12-20T09:41:54.303Z,0.00
2022-12-20T09:44:25.836Z,100.00
2022-12-20T09:46:57.495Z,100.00
2022-12-20T09:49:29.649Z,100.00
2022-12-20T09:52:11.047Z,100.00
2022-12-20T09:54:44.641Z,0.00
2022-12-20T09:57:17.998Z,100.00
2022-12-20T09:59:49.577Z,100.00
2022-12-20T10:05:15.045Z,100.00
2022-12-20T10:07:47.750Z,100.00
2022-12-20T10:10:33.912Z,100.00
2022-12-20T10:13:08.786Z,57.24
2022-12-20T10:15:39.746Z,57.88
2022-12-20T10:18:20.619Z,59.08
2022-12-20T10:20:56.438Z,100.00
2022-12-20T10:23:32.735Z,59.08
2022-12-20T10:26:01.239Z,59.08
2022-12-20T10:28:32.513Z,100.00
2022-12-20T10:31:02.661Z,100.00
2022-12-20T10:33:32.991Z,59.08
2022-12-20T10:36:26.179Z,100.00
2022-12-20T10:38:55.271Z,100.00
2022-12-20T10:41:24.681Z,100.00
2022-12-20T10:46:36.622Z,100.00
2022-12-20T10:49:24.275Z,100.00
2022-12-20T10:51:56.082Z,100.00
2022-12-20T10:54:26.480Z,100.00
2022-12-20T10:56:59.200Z,100.00
2022-12-20T10:59:33.346Z,100.00
2022-12-20T11:02:01.262Z,100.00
2022-12-20T11:04:32.865Z,100.00
2022-12-20T11:07:01.971Z,100.00
2022-12-20T11:09:32.780Z,100.00
2022-12-20T11:12:05.897Z,100.00
2022-12-20T11:14:39.270Z,100.00
2022-12-20T11:17:20.998Z,100.00
2022-12-20T11:20:09.387Z,100.00
2022-12-20T11:22:46.081Z,100.00
2022-12-20T11:25:33.315Z,100.00
2022-12-20T11:28:12.962Z,100.00
2022-12-20T11:30:48.188Z,100.00
2022-12-20T11:33:30.627Z,100.00
2022-12-20T11:36:04.833Z,100.00
2022-12-20T11:38:41.411Z,100.00
2022-12-20T11:41:22.619Z,100.00
2022-12-20T11:44:24.586Z,100.00
2022-12-20T11:47:02.986Z,100.00
2022-12-20T11:49:42.952Z,100.00
2022-12-20T11:52:21.429Z,100.00
2022-12-20T11:54:51.877Z,100.00
2022-12-20T11:57:24.322Z,100.00
2022-12-20T11:59:53.227Z,100.00
2022-12-20T12:02:25.908Z,100.00
2022-12-20T12:04:57.409Z,100.00
2022-12-20T12:07:30.160Z,100.00
2022-12-20T12:10:00.900Z,100.00
2022-12-20T12:12:30.562Z,100.00
2022-12-20T12:15:01.656Z,59.08
2022-12-20T12:17:35.958Z,59.08
2022-12-20T12:20:21.809Z,61.47
2022-12-20T12:25:20.265Z,61.47
2022-12-20T12:27:47.960Z,100.00
2022-12-20T12:32:47.156Z,100.00
2022-12-20T12:35:25.153Z,100.00
2022-12-20T12:38:05.853Z,100.00
2022-12-20T12:41:10.530Z,100.00
2022-12-20T12:43:49.995Z,61.47
2022-12-20T12:46:21.264Z,61.47
2022-12-20T12:48:53.335Z,100.00
2022-12-20T12:54:03.236Z,100.00
2022-12-20T12:56:43.991Z,100.00
2022-12-20T12:59:42.297Z,100.00
2022-12-20T13:02:49.527Z,100.00
2022-12-20T13:05:34.913Z,100.00
2022-12-20T13:08:02.848Z,100.00
2022-12-20T13:11:00.806Z,100.00
2022-12-20T13:13:28.784Z,100.00
2022-12-20T13:16:14.908Z,100.00
2022-12-20T13:19:00.722Z,100.00
2022-12-20T13:21:39.345Z,100.00
2022-12-20T13:24:45.088Z,100.00
2022-12-20T13:27:29.488Z,100.00
2022-12-20T13:30:14.523Z,100.00
2022-12-20T13:33:21.783Z,100.00
2022-12-20T13:35:59.008Z,100.00
2022-12-20T13:38:50.093Z,100.00
2022-12-20T13:41:34.234Z,100.00
2022-12-20T13:44:11.616Z,100.00
2022-12-20T13:46:43.811Z,100.00
2022-12-20T13:49:13.308Z,100.00
2022-12-20T13:51:41.076Z,100.00
2022-12-20T13:54:09.864Z,100.00
2022-12-20T13:56:44.246Z,100.00
2022-12-20T13:59:17.554Z,100.00
2022-12-20T14:01:50.503Z,100.00
2022-12-20T14:04:20.268Z,100.00
2022-12-20T14:06:52.405Z,100.00
2022-12-20T14:09:33.866Z,100.00
2022-12-20T14:12:06.416Z,100.00
2022-12-20T14:14:39.946Z,100.00
2022-12-20T14:17:18.906Z,100.00
2022-12-20T14:19:46.717Z,100.00
2022-12-20T14:22:15.071Z,100.00
2022-12-20T14:24:43.707Z,100.00
2022-12-20T14:27:14.963Z,100.00
2022-12-20T14:29:46.158Z,100.00
2022-12-20T14:32:20.333Z,100.00
2022-12-20T14:34:48.822Z,100.00
2022-12-20T14:37:29.332Z,100.00
2022-12-20T14:39:58.320Z,100.00
2022-12-20T14:42:29.825Z,100.00
2022-12-20T14:45:16.938Z,100.00
2022-12-20T14:47:52.291Z,100.00
2022-12-20T14:50:22.154Z,100.00
2022-12-20T14:52:49.975Z,100.00
2022-12-20T14:55:19.328Z,100.00
2022-12-20T14:57:51.667Z,100.00
2022-12-20T15:00:25.384Z,100.00
2022-12-20T15:03:00.728Z,100.00
2022-12-20T15:05:46.279Z,100.00
2022-12-20T15:08:15.488Z,100.00
2022-12-20T15:10:43.787Z,100.00
2022-12-20T15:13:15.832Z,100.00
2022-12-20T15:15:46.504Z,100.00
2022-12-20T15:18:15.851Z,100.00
2022-12-20T15:20:44.943Z,100.00
2022-12-20T15:23:17.681Z,100.00
2022-12-20T15:25:46.092Z,100.00
2022-12-20T15:28:16.406Z,100.00
2022-12-20T15:30:46.233Z,100.00
2022-12-20T15:33:17.442Z,100.00
2022-12-20T15:35:46.413Z,100.00
2022-12-20T15:38:22.508Z,100.00
2022-12-20T15:41:03.380Z,100.00
2022-12-20T15:43:38.829Z,100.00
2022-12-20T15:46:08.829Z,100.00
2022-12-20T15:48:39.832Z,100.00
2022-12-20T15:51:16.398Z,100.00
2022-12-20T15:53:44.268Z,100.00
2022-12-20T15:56:18.726Z,100.00
2022-12-20T15:58:47.708Z,100.00
2022-12-20T16:01:19.146Z,100.00
2022-12-20T16:03:47.206Z,100.00
2022-12-20T16:06:15.028Z,100.00
2022-12-20T16:08:43.492Z,100.00
2022-12-20T16:11:20.349Z,100.00
2022-12-20T16:13:48.377Z,100.00
2022-12-20T16:16:19.312Z,100.00
2022-12-20T16:18:47.258Z,100.00
2022-12-20T16:21:18.653Z,100.00
2022-12-20T16:23:46.581Z,100.00
2022-12-20T16:26:15.017Z,100.00
2022-12-20T16:28:43.605Z,100.00
2022-12-20T16:31:12.879Z,100.00
2022-12-20T16:33:42.401Z,100.00
2022-12-20T16:36:11.904Z,100.00
2022-12-20T16:38:41.674Z,100.00
2022-12-20T16:41:14.582Z,100.00
2022-12-20T16:43:44.450Z,100.00
2022-12-20T16:46:13.691Z,100.00
2022-12-20T16:48:45.008Z,100.00
2022-12-20T16:51:24.723Z,100.00
2022-12-20T16:56:41.360Z,100.00
2022-12-20T16:59:19.217Z,100.00
2022-12-20T17:01:48.955Z,100.00
2022-12-20T17:04:19.958Z,100.00
2022-12-20T17:06:47.786Z,100.00
2022-12-20T17:12:04.553Z,100.00
2022-12-20T17:14:33.984Z,100.00
2022-12-20T17:17:02.244Z,100.00
2022-12-20T17:19:31.410Z,100.00
2022-12-20T17:24:44.857Z,100.00
2022-12-20T17:27:12.802Z,100.00
2022-12-20T17:29:40.540Z,100.00
2022-12-20T17:32:19.968Z,100.00
2022-12-20T17:34:49.667Z,100.00
2022-12-20T17:37:17.885Z,100.00
2022-12-20T17:39:46.061Z,100.00
2022-12-20T17:42:14.314Z,100.00
2022-12-20T17:44:42.304Z,100.00
2022-12-20T17:47:11.606Z,61.47
2022-12-20T17:49:39.944Z,100.00
2022-12-20T17:52:13.745Z,100.00
2022-12-20T17:54:41.692Z,100.00
2022-12-20T17:57:14.258Z,100.00
2022-12-20T17:59:42.487Z,66.11
2022-12-20T18:02:20.683Z,66.11
2022-12-20T18:04:48.999Z,100.00
2022-12-20T18:07:18.403Z,100.00
2022-12-20T18:09:47.988Z,66.11
2022-12-20T18:12:16.099Z,66.11
2022-12-20T18:14:43.770Z,65.13
2022-12-20T18:17:11.810Z,65.28
2022-12-20T18:19:40.761Z,65.60
2022-12-20T18:22:08.530Z,65.30
2022-12-20T18:24:37.631Z,65.26
2022-12-20T18:27:05.925Z,65.20
2022-12-20T18:29:33.827Z,65.60
2022-12-20T18:32:01.619Z,65.77
2022-12-20T18:34:31.667Z,65.09
2022-12-20T18:37:01.826Z,65.42
2022-12-20T18:39:32.980Z,65.25
2022-12-20T18:42:02.381Z,65.70
2022-12-20T18:44:30.987Z,65.84
2022-12-20T18:46:58.909Z,65.77
2022-12-20T18:49:27.448Z,65.63
2022-12-20T18:51:55.331Z,66.07
2022-12-20T18:54:23.082Z,65.60
2022-12-20T18:56:53.902Z,65.81
2022-12-20T18:59:23.274Z,66.18
2022-12-20T19:01:52.201Z,66.14
2022-12-20T19:04:24.548Z,65.42
2022-12-20T19:06:53.876Z,66.00
2022-12-20T19:09:22.021Z,65.88
2022-12-20T19:11:56.698Z,65.75
2022-12-20T19:14:26.958Z,65.54
2022-12-20T19:16:56.033Z,65.60
2022-12-20T19:19:24.711Z,65.34
2022-12-20T19:21:52.395Z,65.70
2022-12-20T19:24:20.918Z,64.99
2022-12-20T19:26:49.374Z,64.78
2022-12-20T19:29:17.286Z,64.40
2022-12-20T19:31:47.762Z,64.59
2022-12-20T19:34:16.322Z,64.40
2022-12-20T19:36:45.446Z,65.09
2022-12-20T19:39:16.147Z,64.45
2022-12-20T19:42:21.409Z,65.13
2022-12-20T19:44:38.141Z,64.82
2022-12-20T19:47:08.096Z,65.23
2022-12-20T19:49:36.856Z,65.14
2022-12-20T19:52:07.703Z,65.25
2022-12-20T19:54:36.677Z,65.02
2022-12-20T19:57:04.499Z,64.74
2022-12-20T19:59:32.327Z,65.02
2022-12-20T20:02:01.732Z,64.65
2022-12-20T20:04:31.429Z,64.01
2022-12-20T20:07:00.557Z,64.08
2022-12-20T20:09:28.350Z,64.22
2022-12-20T20:11:56.382Z,63.82
2022-12-20T20:14:24.469Z,64.37
2022-12-20T20:16:52.931Z,63.56
2022-12-20T20:19:20.737Z,62.99
2022-12-20T20:21:51.253Z,63.35
2022-12-20T20:24:18.971Z,62.66
2022-12-20T20:26:46.767Z,62.48
2022-12-20T20:29:14.601Z,61.98
2022-12-20T20:31:42.379Z,62.08
2022-12-20T20:34:10.308Z,62.77
2022-12-20T20:36:38.021Z,61.82
2022-12-20T20:39:08.101Z,62.24
2022-12-20T20:41:35.879Z,61.16
2022-12-20T20:44:04.823Z,61.87
2022-12-20T20:46:32.634Z,61.85
2022-12-20T20:49:00.811Z,61.66
2022-12-20T20:51:28.694Z,61.61
2022-12-20T20:53:56.613Z,62.10
2022-12-20T20:56:26.421Z,61.66
2022-12-20T20:58:57.682Z,61.77
2022-12-20T21:01:28.871Z,62.13
2022-12-20T21:03:57.734Z,62.53
2022-12-20T21:06:39.778Z,61.94
2022-12-20T21:09:09.266Z,61.82
2022-12-20T21:11:38.555Z,62.08
2022-12-20T21:14:06.868Z,61.70
2022-12-20T21:16:35.152Z,61.89
2022-12-20T21:19:03.340Z,62.55
2022-12-20T21:21:31.028Z,61.68
2022-12-20T21:23:58.923Z,61.79
2022-12-20T21:26:27.318Z,61.88
2022-12-20T21:28:58.784Z,62.46
2022-12-20T21:31:26.688Z,62.24
2022-12-20T21:33:56.789Z,61.87
2022-12-20T21:36:24.728Z,61.96
2022-12-20T21:38:54.276Z,62.38
2022-12-20T21:41:24.028Z,62.71
2022-12-20T21:43:52.107Z,63.14
2022-12-20T21:46:21.703Z,63.14
2022-12-20T21:48:49.617Z,63.14
2022-12-20T21:51:19.881Z,63.14
2022-12-20T21:53:51.153Z,63.14
2022-12-20T21:56:19.548Z,63.14
2022-12-20T21:58:47.898Z,63.14
2022-12-20T22:01:18.026Z,63.14
2022-12-20T22:03:48.612Z,63.14
2022-12-20T22:06:17.290Z,63.14
2022-12-20T22:08:45.060Z,63.14
2022-12-20T22:11:14.836Z,63.14
2022-12-20T22:13:42.659Z,63.14
2022-12-20T22:16:12.144Z,63.14
2022-12-20T22:18:40.802Z,63.14
2022-12-20T22:21:12.039Z,63.14
2022-12-20T22:23:40.316Z,63.14
2022-12-20T22:26:09.330Z,63.14
2022-12-20T22:28:37.205Z,63.14
2022-12-20T22:31:08.071Z,63.14
2022-12-20T22:33:35.789Z,63.14
2022-12-20T22:41:08.169Z,100.00
2022-12-20T22:43:36.209Z,100.00
2022-12-20T22:46:04.935Z,100.00
2022-12-20T22:48:32.878Z,100.00
2022-12-20T22:51:00.819Z,63.14
2022-12-20T22:55:57.701Z,63.14
2022-12-20T23:00:53.046Z,100.00
2022-12-20T23:03:21.242Z,63.14
2022-12-20T23:05:53.744Z,63.14
2022-12-20T23:08:21.388Z,100.00
2022-12-20T23:13:53.505Z,63.14
2022-12-20T23:16:21.454Z,63.14
2022-12-20T23:18:49.246Z,63.14
2022-12-20T23:24:02.789Z,100.00
2022-12-20T23:26:30.950Z,100.00
2022-12-20T23:29:01.184Z,100.00
2022-12-20T23:31:28.973Z,100.00
2022-12-20T23:33:56.854Z,100.00
2022-12-20T23:36:24.809Z,100.00
2022-12-20T23:38:52.601Z,100.00
2022-12-20T23:41:20.465Z,100.00
2022-12-20T23:43:48.477Z,100.00
2022-12-20T23:46:19.988Z,100.00
2022-12-20T23:48:47.784Z,100.00
2022-12-20T23:51:15.443Z,100.00
2022-12-20T23:53:43.172Z,100.00
2022-12-20T23:56:13.051Z,100.00
2022-12-20T23:58:41.122Z,100.00
